Time;durP1;ratioP1;P1;durP2;ratioP2;P2;SDS_P1;SDS_P2;PMS_P1;PMS_P2;Temp;Humidity;BMP_temperature;BMP_pressure;BME280_temperature;BME280_humidity;BME280_pressure;Samples;Min_cycle;Max_cycle;Signal;HPM_P1;HPM_P2
2023/01/14 00:01:50;;;;;;;12.00;2.42;;;6.80;99.90;;;;;;4982221;28;20038;-81
2023/01/14 00:04:16;;;;;;;9.35;2.30;;;6.80;99.90;;;;;;4977393;28;20484;-81
2023/01/14 00:06:41;;;;;;;12.43;3.03;;;6.80;99.90;;;;;;4982396;28;20037;-84
2023/01/14 00:09:11;;;;;;;11.32;2.63;;;6.80;99.90;;;;;;4993006;28;20042;-80
2023/01/14 00:11:46;;;;;;;11.35;2.55;;;6.70;99.90;;;;;;4998428;28;20512;-81
2023/01/14 00:14:20;;;;;;;9.50;2.80;;;6.70;99.90;;;;;;4997760;28;20075;-81
2023/01/14 00:16:47;;;;;;;12.55;2.70;;;6.60;99.90;;;;;;4981598;28;20144;-81
2023/01/14 00:19:13;;;;;;;12.40;3.38;;;6.60;99.90;;;;;;5015033;28;20042;-81
2023/01/14 00:21:40;;;;;;;15.82;3.13;;;6.60;99.90;;;;;;4982027;28;20034;-82
2023/01/14 00:24:06;;;;;;;13.95;3.00;;;6.70;99.90;;;;;;4994521;28;20112;-81
2023/01/14 00:26:32;;;;;;;13.75;3.25;;;6.70;99.90;;;;;;4997331;28;20065;-84
2023/01/14 00:28:58;;;;;;;12.52;2.88;;;6.70;99.90;;;;;;4982274;28;20038;-81
2023/01/14 00:31:26;;;;;;;11.85;2.88;;;6.70;99.90;;;;;;4982501;28;20053;-81
2023/01/14 00:33:52;;;;;;;15.35;3.83;;;6.70;99.90;;;;;;4995886;28;20057;-81
2023/01/14 00:36:20;;;;;;;15.30;3.95;;;6.70;99.90;;;;;;5006694;28;20034;-81
2023/01/14 00:38:46;;;;;;;10.57;3.10;;;6.70;99.90;;;;;;4981153;28;20080;-81
2023/01/14 00:41:20;;;;;;;14.13;2.75;;;6.50;99.90;;;;;;5015415;28;20038;-82
2023/01/14 00:43:51;;;;;;;12.20;2.78;;;6.50;99.90;;;;;;4979324;28;20097;-81
2023/01/14 00:46:20;;;;;;;15.90;3.10;;;6.50;99.90;;;;;;4973833;28;20029;-83
2023/01/14 00:48:46;;;;;;;17.33;3.60;;;6.50;99.90;;;;;;4981588;28;20095;-81
2023/01/14 00:51:13;;;;;;;16.60;3.55;;;6.50;99.90;;;;;;4992163;28;20033;-81
2023/01/14 00:53:40;;;;;;;14.88;3.38;;;6.60;99.90;;;;;;4997474;28;20120;-81
2023/01/14 00:56:06;;;;;;;22.88;3.78;;;6.60;99.90;;;;;;4995819;28;20045;-81
2023/01/14 00:58:32;;;;;;;13.10;2.95;;;6.60;99.90;;;;;;4985560;28;20041;-82
2023/01/14 01:00:58;;;;;;;14.20;2.95;;;6.60;99.90;;;;;;4980666;28;20034;-82
2023/01/14 01:03:24;;;;;;;14.32;2.88;;;6.70;99.90;;;;;;4999835;28;20046;-81
2023/01/14 01:05:50;;;;;;;16.70;3.25;;;6.70;99.90;;;;;;4994542;28;20049;-82
2023/01/14 01:08:18;;;;;;;17.35;3.45;;;6.70;99.90;;;;;;4984693;28;20034;-81
2023/01/14 01:10:50;;;;;;;13.23;2.47;;;6.70;99.90;;;;;;4981009;28;20497;-83
2023/01/14 01:13:16;;;;;;;14.32;3.20;;;6.70;99.90;;;;;;4994530;28;20038;-81
2023/01/14 01:15:43;;;;;;;15.73;3.42;;;6.80;99.90;;;;;;4972522;28;20084;-83
2023/01/14 01:18:11;;;;;;;14.07;3.50;;;6.80;99.90;;;;;;5000446;28;20049;-81
2023/01/14 01:20:37;;;;;;;13.15;3.10;;;6.80;99.90;;;;;;4984334;28;20033;-81
2023/01/14 01:23:04;;;;;;;14.00;2.97;;;6.80;99.90;;;;;;4984360;28;20045;-81
2023/01/14 01:25:30;;;;;;;16.05;3.08;;;6.80;99.90;;;;;;4981900;28;20038;-81
2023/01/14 01:27:56;;;;;;;17.70;3.22;;;6.80;99.90;;;;;;4976504;28;20357;-81
2023/01/14 01:30:23;;;;;;;16.42;3.63;;;6.80;99.90;;;;;;4997414;28;20124;-82
2023/01/14 01:32:49;;;;;;;16.40;3.10;;;6.80;99.90;;;;;;4993343;28;20057;-81
2023/01/14 01:35:14;;;;;;;14.40;3.15;;;6.80;99.90;;;;;;4970928;28;20074;-82
2023/01/14 01:37:40;;;;;;;14.95;3.33;;;6.80;99.90;;;;;;4979189;28;20038;-82
2023/01/14 01:40:06;;;;;;;13.73;2.58;;;6.80;99.90;;;;;;4981410;28;20042;-81
2023/01/14 01:42:34;;;;;;;15.95;3.47;;;6.90;99.90;;;;;;4973494;28;20260;-81
2023/01/14 01:45:25;;;;;;;17.38;3.78;;;6.90;99.90;;;;;;4989588;28;20038;-81
2023/01/14 01:47:55;;;;;;;17.77;3.63;;;6.90;99.90;;;;;;4977710;28;20497;-81
2023/01/14 01:50:22;;;;;;;17.13;3.53;;;6.90;99.90;;;;;;4967791;28;20115;-81
2023/01/14 01:52:48;;;;;;;16.88;3.08;;;6.90;99.90;;;;;;4961893;28;20034;-81
2023/01/14 01:55:15;;;;;;;14.98;3.30;;;6.90;99.90;;;;;;4989245;28;20496;-81
2023/01/14 01:57:42;;;;;;;16.08;3.20;;;6.90;99.90;;;;;;5009725;28;20038;-82
2023/01/14 02:00:09;;;;;;;18.65;3.38;;;6.90;99.90;;;;;;5013424;28;20405;-81
2023/01/14 02:02:35;;;;;;;16.40;2.88;;;7.00;99.90;;;;;;5013415;28;20092;-82
2023/01/14 02:05:01;;;;;;;16.90;3.88;;;6.90;99.90;;;;;;4996665;28;20448;-81
2023/01/14 02:07:28;;;;;;;13.68;3.00;;;6.90;99.90;;;;;;4995742;28;20049;-82
2023/01/14 02:09:58;;;;;;;14.77;3.22;;;6.90;99.90;;;;;;4981207;28;20374;-83
2023/01/14 02:12:36;;;;;;;15.82;3.03;;;6.90;99.90;;;;;;5009807;28;20050;-81
2023/01/14 02:15:17;;;;;;;11.98;2.90;;;6.80;99.90;;;;;;4989688;28;20034;-81
2023/01/14 02:18:00;;;;;;;14.13;2.92;;;6.80;99.90;;;;;;4997364;28;20037;-81
2023/01/14 02:20:50;;;;;;;14.63;2.80;;;6.80;99.90;;;;;;4998034;28;20050;-81
2023/01/14 02:23:49;;;;;;;13.85;2.63;;;6.70;99.90;;;;;;4977263;28;20476;-81
2023/01/14 02:26:29;;;;;;;14.27;3.10;;;6.70;99.90;;;;;;4983958;28;20408;-81
2023/01/14 02:29:35;;;;;;;13.15;3.20;;;6.60;99.90;;;;;;5002782;28;20399;-81
2023/01/14 02:32:12;;;;;;;12.57;2.67;;;6.60;99.90;;;;;;4986378;28;20042;-81
2023/01/14 02:34:50;;;;;;;15.55;2.90;;;6.50;99.90;;;;;;4985240;28;20136;-81
2023/01/14 02:37:18;;;;;;;12.50;2.70;;;6.40;99.90;;;;;;4999249;28;20033;-81
2023/01/14 02:40:11;;;;;;;14.02;2.85;;;6.30;99.90;;;;;;5002820;28;20075;-82
2023/01/14 02:45:53;;;;;;;10.32;2.35;;;6.20;99.90;;;;;;4997023;28;20546;-81
2023/01/14 02:48:21;;;;;;;10.13;2.90;;;6.20;99.90;;;;;;5016135;28;20035;-81
2023/01/14 02:50:47;;;;;;;13.57;2.38;;;6.00;99.90;;;;;;4975622;28;20108;-81
2023/01/14 02:53:18;;;;;;;13.85;3.55;;;5.90;99.90;;;;;;4995231;28;20461;-81
2023/01/14 02:55:44;;;;;;;15.88;2.95;;;5.80;99.90;;;;;;5014348;28;20104;-81
2023/01/14 02:58:27;;;;;;;17.60;2.95;;;5.70;99.90;;;;;;5003188;28;20500;-82
2023/01/14 03:01:06;;;;;;;14.75;3.45;;;5.60;99.90;;;;;;4987441;28;20046;-83
2023/01/14 03:04:06;;;;;;;16.85;3.15;;;5.50;99.90;;;;;;4984851;28;20034;-82
2023/01/14 03:06:44;;;;;;;17.83;3.22;;;5.50;99.90;;;;;;4998386;28;20046;-81
2023/01/14 03:09:36;;;;;;;13.60;2.83;;;5.30;99.90;;;;;;4989323;28;20053;-81
2023/01/14 03:12:06;;;;;;;11.98;2.95;;;5.30;99.90;;;;;;4989640;28;20207;-81
2023/01/14 03:14:38;;;;;;;14.90;2.70;;;5.20;99.90;;;;;;4988177;28;20067;-81
2023/01/14 03:17:13;;;;;;;13.23;2.90;;;5.20;99.90;;;;;;5004094;28;20056;-81
2023/01/14 03:19:43;;;;;;;11.63;2.80;;;5.10;99.90;;;;;;5006082;28;20634;-81
2023/01/14 03:22:10;;;;;;;14.63;3.28;;;5.10;99.90;;;;;;5024609;28;20062;-80
2023/01/14 03:24:43;;;;;;;14.63;3.33;;;5.10;99.90;;;;;;5003006;28;20507;-83
2023/01/14 03:27:22;;;;;;;15.13;3.67;;;5.10;99.90;;;;;;5021398;28;20093;-82
2023/01/14 03:29:53;;;;;;;13.30;2.80;;;5.10;99.90;;;;;;5002695;28;20042;-81
2023/01/14 03:32:32;;;;;;;12.88;3.10;;;5.20;99.90;;;;;;4987302;28;20042;-81
2023/01/14 03:35:10;;;;;;;14.32;2.70;;;5.20;99.90;;;;;;4995633;28;20041;-83
2023/01/14 03:37:40;;;;;;;12.38;3.13;;;5.30;99.90;;;;;;4999412;28;20037;-81
2023/01/14 03:40:11;;;;;;;14.98;3.20;;;5.30;99.90;;;;;;4999613;28;20053;-81
2023/01/14 03:42:43;;;;;;;13.38;3.15;;;5.30;99.90;;;;;;5011451;28;20042;-81
2023/01/14 03:45:23;;;;;;;15.48;3.25;;;5.20;99.90;;;;;;4997971;28;20413;-81
2023/01/14 03:47:49;;;;;;;12.98;2.85;;;5.20;99.90;;;;;;4983207;28;20041;-81
2023/01/14 03:50:17;;;;;;;14.48;2.97;;;5.20;99.90;;;;;;5000814;28;20042;-81
2023/01/14 03:52:54;;;;;;;14.70;2.95;;;5.20;99.90;;;;;;4998195;28;20468;-81
2023/01/14 03:55:48;;;;;;;12.13;2.60;;;5.20;99.90;;;;;;4995783;28;20066;-81
2023/01/14 03:58:36;;;;;;;14.93;3.10;;;5.20;99.90;;;;;;4983820;28;20540;-81
2023/01/14 04:01:21;;;;;;;13.25;3.00;;;5.20;99.90;;;;;;5000108;28;20042;-82
2023/01/14 04:03:48;;;;;;;12.45;3.08;;;5.20;99.90;;;;;;5014077;28;20125;-81
2023/01/14 04:06:14;;;;;;;14.88;3.03;;;5.20;99.90;;;;;;5000738;28;20507;-81
2023/01/14 04:08:39;;;;;;;13.35;3.03;;;5.20;99.90;;;;;;4980022;28;20136;-81
2023/01/14 04:11:05;;;;;;;17.55;3.42;;;5.20;99.90;;;;;;4985377;28;20040;-81
2023/01/14 04:16:15;;;;;;;17.10;3.20;;;5.10;99.90;;;;;;5000180;28;20112;-80
2023/01/14 04:18:41;;;;;;;13.63;3.50;;;5.10;99.90;;;;;;5000759;28;20488;-80
2023/01/14 04:21:06;;;;;;;13.07;3.28;;;5.10;99.90;;;;;;5000805;28;20037;-80
2023/01/14 04:23:32;;;;;;;15.30;3.67;;;5.10;99.90;;;;;;4999511;28;20408;-80
2023/01/14 04:25:59;;;;;;;17.25;3.67;;;5.10;99.90;;;;;;4997448;28;20041;-81
2023/01/14 04:28:25;;;;;;;16.67;3.67;;;5.10;99.90;;;;;;4983524;28;20450;-81
2023/01/14 04:30:51;;;;;;;16.13;3.92;;;5.10;99.90;;;;;;4999116;28;20034;-80
2023/01/14 04:33:17;;;;;;;12.10;3.17;;;5.10;99.90;;;;;;4981915;28;20373;-80
2023/01/14 04:35:48;;;;;;;16.67;3.63;;;5.10;99.90;;;;;;4997700;28;20044;-81
2023/01/14 04:38:19;;;;;;;19.63;3.97;;;5.10;99.90;;;;;;4994462;28;20034;-81
2023/01/14 04:40:45;;;;;;;17.20;4.20;;;5.10;99.90;;;;;;4975477;28;20554;-81
2023/01/14 04:43:10;;;;;;;18.33;3.78;;;5.10;99.90;;;;;;4999645;28;20033;-81
2023/01/14 04:45:36;;;;;;;21.00;4.50;;;5.10;99.90;;;;;;5000220;28;20538;-81
2023/01/14 04:48:02;;;;;;;20.30;5.05;;;5.10;99.90;;;;;;4978796;28;20133;-81
2023/01/14 04:50:32;;;;;;;16.75;3.80;;;5.20;99.90;;;;;;5000606;28;20048;-81
2023/01/14 04:53:12;;;;;;;20.08;4.38;;;5.20;99.90;;;;;;5000046;28;20095;-82
2023/01/14 04:55:41;;;;;;;23.73;5.47;;;5.20;99.90;;;;;;5017416;28;20042;-81
2023/01/14 04:58:08;;;;;;;17.77;4.25;;;5.20;99.90;;;;;;4980042;28;20145;-81
2023/01/14 05:00:34;;;;;;;21.85;4.93;;;5.20;99.90;;;;;;4999314;28;20041;-80
2023/01/14 05:03:09;;;;;;;17.85;4.78;;;5.20;99.90;;;;;;4995851;28;20090;-81
2023/01/14 05:05:36;;;;;;;20.15;4.32;;;5.30;99.90;;;;;;4985768;28;20071;-81
2023/01/14 05:08:03;;;;;;;19.52;5.13;;;5.20;99.90;;;;;;4999559;28;20042;-81
2023/01/14 05:10:30;;;;;;;19.45;5.03;;;5.20;99.90;;;;;;5001841;28;20064;-80
2023/01/14 05:12:56;;;;;;;20.38;5.07;;;5.30;99.90;;;;;;4985383;28;20392;-80
2023/01/14 05:15:23;;;;;;;19.67;5.07;;;5.20;99.90;;;;;;4979207;28;20040;-80
2023/01/14 05:17:49;;;;;;;20.05;4.88;;;5.20;99.90;;;;;;4995599;28;20034;-81
2023/01/14 05:20:16;;;;;;;26.35;5.32;;;5.20;99.90;;;;;;5004039;28;20041;-80
2023/01/14 05:22:41;;;;;;;25.05;5.35;;;5.20;99.90;;;;;;4987080;28;20038;-81
2023/01/14 05:25:07;;;;;;;22.25;5.25;;;5.20;99.90;;;;;;4988243;28;20038;-81
2023/01/14 05:27:33;;;;;;;23.45;5.22;;;5.20;99.90;;;;;;4996275;28;20041;-81
2023/01/14 05:29:59;;;;;;;21.48;5.38;;;5.20;99.90;;;;;;4987239;28;20073;-81
2023/01/14 05:32:25;;;;;;;19.20;5.20;;;5.20;99.90;;;;;;5005107;28;20424;-81
2023/01/14 05:34:50;;;;;;;20.35;5.57;;;5.20;99.90;;;;;;4993854;28;20076;-81
2023/01/14 05:37:16;;;;;;;20.55;5.20;;;5.30;99.90;;;;;;5002867;28;20080;-81
2023/01/14 05:39:41;;;;;;;27.00;6.20;;;5.20;99.90;;;;;;5003592;28;20049;-81
2023/01/14 05:47:35;;;;;;;23.83;5.47;;;5.20;99.90;;;;;;5004408;28;20057;-81
2023/01/14 05:50:01;;;;;;;29.17;7.70;;;5.20;99.90;;;;;;4982156;28;20041;-81
2023/01/14 05:52:26;;;;;;;28.92;7.20;;;5.20;99.90;;;;;;4994015;28;20042;-80
2023/01/14 05:54:52;;;;;;;30.27;6.80;;;5.20;99.90;;;;;;4981049;28;20049;-81
2023/01/14 05:57:18;;;;;;;31.25;7.18;;;5.20;99.90;;;;;;4989945;28;20061;-81
2023/01/14 05:59:44;;;;;;;25.92;6.38;;;5.20;99.90;;;;;;4996319;28;20124;-80
2023/01/14 06:07:52;;;;;;;22.55;6.38;;;5.20;99.90;;;;;;4979704;28;20042;-81
2023/01/14 06:10:18;;;;;;;26.58;7.03;;;5.20;99.90;;;;;;4980860;28;20036;-80
2023/01/14 06:12:58;;;;;;;25.42;6.85;;;5.30;99.90;;;;;;4997638;28;20034;-81
2023/01/14 06:15:29;;;;;;;29.02;6.53;;;5.20;99.90;;;;;;4978680;28;20537;-80
2023/01/14 06:18:08;;;;;;;24.92;7.32;;;5.20;99.90;;;;;;4977149;28;20038;-80
2023/01/14 06:20:37;;;;;;;32.85;6.70;;;5.20;99.90;;;;;;4981136;28;20049;-80
2023/01/14 06:23:04;;;;;;;24.77;5.95;;;5.20;99.90;;;;;;4981226;28;20042;-81
2023/01/14 06:25:31;;;;;;;29.17;6.40;;;5.20;99.90;;;;;;5012222;28;20038;-81
2023/01/14 06:27:58;;;;;;;28.60;6.13;;;5.20;99.90;;;;;;4986336;28;20077;-80
2023/01/14 06:30:24;;;;;;;26.67;7.00;;;5.20;99.90;;;;;;4982211;28;20142;-80
2023/01/14 06:32:49;;;;;;;33.10;6.97;;;5.20;99.90;;;;;;4996694;28;20096;-81
2023/01/14 06:35:15;;;;;;;23.77;6.85;;;5.20;99.90;;;;;;4992954;28;20038;-81
2023/01/14 06:37:45;;;;;;;30.25;7.05;;;5.30;99.90;;;;;;4969100;28;20492;-81
2023/01/14 06:40:12;;;;;;;32.80;8.77;;;5.30;99.90;;;;;;4981697;28;20045;-81
2023/01/14 06:42:38;;;;;;;27.52;8.25;;;5.30;99.90;;;;;;4999381;28;20042;-81
2023/01/14 06:45:04;;;;;;;29.17;8.10;;;5.30;99.90;;;;;;4971759;28;20041;-81
2023/01/14 06:47:29;;;;;;;29.63;7.65;;;5.30;99.90;;;;;;4979326;28;20092;-80
2023/01/14 06:49:55;;;;;;;30.35;8.55;;;5.30;99.90;;;;;;4983383;28;20041;-81
2023/01/14 06:52:21;;;;;;;29.70;7.53;;;5.30;99.90;;;;;;4982582;28;20087;-81
2023/01/14 06:54:47;;;;;;;34.17;7.90;;;5.30;99.90;;;;;;4981110;28;20046;-81
2023/01/14 06:57:13;;;;;;;29.52;7.43;;;5.30;99.90;;;;;;5011961;28;20065;-81
2023/01/14 06:59:39;;;;;;;32.80;7.93;;;5.30;99.90;;;;;;4996101;28;20065;-81
2023/01/14 07:02:05;;;;;;;25.90;7.55;;;5.40;99.90;;;;;;5000204;28;20472;-81
2023/01/14 07:04:30;;;;;;;26.08;7.93;;;5.40;99.90;;;;;;4983917;28;20042;-81
2023/01/14 07:06:56;;;;;;;31.27;7.18;;;5.40;99.90;;;;;;4973096;28;20049;-81
2023/01/14 07:09:22;;;;;;;25.08;7.82;;;5.40;99.90;;;;;;4998404;28;21713;-81
2023/01/14 07:11:48;;;;;;;27.90;7.88;;;5.40;99.90;;;;;;4994630;28;20519;-81
2023/01/14 07:14:13;;;;;;;24.73;6.63;;;5.50;99.90;;;;;;5005318;28;20090;-81
2023/01/14 07:16:39;;;;;;;32.05;8.18;;;5.50;99.90;;;;;;4975042;28;20079;-81
2023/01/14 07:19:04;;;;;;;35.75;8.27;;;5.50;99.90;;;;;;5001974;28;20049;-81
2023/01/14 07:21:30;;;;;;;27.23;7.45;;;5.50;99.90;;;;;;5002674;28;20030;-81
2023/01/14 07:23:55;;;;;;;27.13;7.78;;;5.50;99.90;;;;;;4989018;28;20038;-81
2023/01/14 07:26:21;;;;;;;24.15;6.97;;;5.50;99.90;;;;;;4989307;28;20052;-81
2023/01/14 07:28:47;;;;;;;30.10;7.75;;;5.60;99.90;;;;;;4987857;28;20045;-81
2023/01/14 07:31:12;;;;;;;28.20;7.03;;;5.60;99.90;;;;;;5006738;28;20404;-81
2023/01/14 07:33:38;;;;;;;26.42;6.88;;;5.60;99.90;;;;;;4986540;28;20133;-81
2023/01/14 07:36:04;;;;;;;26.52;7.65;;;5.60;99.90;;;;;;4998163;28;20042;-81
2023/01/14 07:38:29;;;;;;;23.85;6.40;;;5.60;99.90;;;;;;5005063;28;20061;-81
2023/01/14 07:40:57;;;;;;;26.42;6.68;;;5.60;99.90;;;;;;4989505;28;20045;-80
2023/01/14 07:43:22;;;;;;;26.75;6.93;;;5.60;99.90;;;;;;4987401;28;20038;-81
2023/01/14 07:45:48;;;;;;;27.33;7.45;;;5.60;99.90;;;;;;4990666;28;20041;-81
2023/01/14 07:48:14;;;;;;;24.02;6.38;;;5.60;99.90;;;;;;4990155;28;20098;-81
2023/01/14 07:50:39;;;;;;;25.25;6.07;;;5.70;99.90;;;;;;4983536;28;20038;-81
2023/01/14 07:53:05;;;;;;;23.35;6.85;;;5.70;99.90;;;;;;4992756;28;20507;-81
2023/01/14 07:55:31;;;;;;;21.77;5.22;;;5.70;99.90;;;;;;4994861;28;20073;-81
2023/01/14 07:57:58;;;;;;;28.35;5.80;;;5.70;99.90;;;;;;4992441;28;20038;-81
2023/01/14 08:00:23;;;;;;;30.05;6.57;;;5.70;99.90;;;;;;4999058;28;20046;-81
2023/01/14 08:02:49;;;;;;;24.77;5.43;;;5.70;99.90;;;;;;4997642;28;20068;-81
2023/01/14 08:05:15;;;;;;;28.27;5.55;;;5.70;99.90;;;;;;4983371;28;20065;-80
2023/01/14 08:07:41;;;;;;;30.48;5.43;;;5.70;99.90;;;;;;4977776;28;20046;-81
2023/01/14 08:10:07;;;;;;;27.27;5.18;;;5.70;99.90;;;;;;4992654;28;20046;-81
2023/01/14 08:12:33;;;;;;;21.23;4.63;;;5.70;99.90;;;;;;4978741;28;20125;-80
2023/01/14 08:15:03;;;;;;;27.35;5.20;;;5.70;99.90;;;;;;4997358;28;20128;-77
2023/01/14 08:17:28;;;;;;;20.15;4.15;;;5.70;99.90;;;;;;4974394;28;20080;-81
2023/01/14 08:19:54;;;;;;;25.65;4.97;;;5.70;99.90;;;;;;4972026;28;20105;-80
2023/01/14 08:22:19;;;;;;;22.92;4.60;;;5.70;99.90;;;;;;4998246;28;20041;-80
2023/01/14 08:24:45;;;;;;;29.67;5.20;;;5.70;99.90;;;;;;4998533;28;20030;-80
2023/01/14 08:27:11;;;;;;;28.60;5.30;;;5.70;99.90;;;;;;4979897;28;20041;-80
2023/01/14 08:29:36;;;;;;;21.27;5.13;;;5.70;99.90;;;;;;4982001;28;20050;-81
2023/01/14 08:32:03;;;;;;;25.23;5.32;;;5.70;99.90;;;;;;4997725;28;20070;-80
2023/01/14 08:34:29;;;;;;;24.52;4.32;;;5.70;99.90;;;;;;4981063;28;20551;-80
2023/01/14 08:36:54;;;;;;;21.70;4.90;;;5.70;99.90;;;;;;4998088;28;20034;-80
2023/01/14 08:39:20;;;;;;;26.38;5.45;;;5.70;99.90;;;;;;4990956;28;20039;-80
2023/01/14 08:41:45;;;;;;;22.42;4.45;;;5.70;99.90;;;;;;4976844;28;20042;-80
2023/01/14 08:44:11;;;;;;;24.88;4.93;;;5.70;99.90;;;;;;4999984;28;20037;-80
2023/01/14 08:46:38;;;;;;;24.23;4.57;;;5.70;99.90;;;;;;4983254;28;20046;-81
2023/01/14 08:49:04;;;;;;;23.60;4.90;;;5.70;99.90;;;;;;5000129;28;20408;-82
2023/01/14 08:51:30;;;;;;;26.77;4.90;;;5.70;99.90;;;;;;4995250;28;20118;-79
2023/01/14 08:53:56;;;;;;;23.52;4.88;;;5.70;99.90;;;;;;4992230;28;20139;-79
2023/01/14 08:56:22;;;;;;;24.85;4.93;;;5.70;99.90;;;;;;5000055;28;20053;-79
2023/01/14 08:58:48;;;;;;;32.35;5.82;;;5.70;99.90;;;;;;5001173;28;20425;-80
2023/01/14 09:01:14;;;;;;;23.35;4.80;;;5.80;99.90;;;;;;4998657;28;20561;-79
2023/01/14 09:03:42;;;;;;;23.70;5.28;;;5.80;99.90;;;;;;4983101;28;20496;-80
2023/01/14 09:06:11;;;;;;;22.08;5.00;;;5.80;99.90;;;;;;4998165;28;20523;-80
2023/01/14 09:17:10;;;;;;;22.02;5.15;;;5.80;99.90;;;;;;4992153;28;20038;-83
2023/01/14 09:19:48;;;;;;;22.25;5.53;;;5.90;99.90;;;;;;4998031;28;20053;-83
2023/01/14 09:22:25;;;;;;;16.35;4.88;;;5.90;99.90;;;;;;4997594;28;20499;-82
2023/01/14 09:24:51;;;;;;;17.35;5.20;;;5.90;99.90;;;;;;4981339;28;20041;-80
2023/01/14 09:27:19;;;;;;;24.05;5.63;;;5.90;99.90;;;;;;4973676;28;20520;-81
2023/01/14 09:29:44;;;;;;;19.52;4.97;;;5.90;99.90;;;;;;5012274;28;20125;-81
2023/01/14 09:32:12;;;;;;;20.38;5.60;;;5.90;99.90;;;;;;4994921;28;20065;-81
2023/01/14 09:34:47;;;;;;;19.30;4.75;;;5.90;99.90;;;;;;4978745;28;20048;-81
2023/01/14 09:37:13;;;;;;;15.45;5.40;;;6.00;99.90;;;;;;4997059;28;20370;-83
2023/01/14 09:39:39;;;;;;;20.88;6.10;;;6.00;99.90;;;;;;4971974;28;20322;-84
2023/01/14 09:42:12;;;;;;;18.90;5.63;;;6.00;99.90;;;;;;4997229;28;20173;-82
2023/01/14 09:44:41;;;;;;;19.83;5.93;;;6.00;99.90;;;;;;4984789;28;20120;-84
2023/01/14 09:47:13;;;;;;;16.88;5.47;;;6.10;99.90;;;;;;4998603;28;20397;-83
2023/01/14 09:49:40;;;;;;;17.33;5.50;;;6.10;99.90;;;;;;4980640;28;20033;-84
2023/01/14 09:52:25;;;;;;;14.52;5.50;;;6.10;99.90;;;;;;4980234;28;20285;-82
2023/01/14 09:54:59;;;;;;;16.75;4.95;;;6.10;99.90;;;;;;4985247;28;20045;-81
2023/01/14 09:57:57;;;;;;;14.13;5.60;;;6.20;99.90;;;;;;5008423;28;20045;-82
2023/01/14 10:00:37;;;;;;;10.93;5.22;;;6.20;99.90;;;;;;5000894;28;20049;-81
2023/01/14 10:03:38;;;;;;;12.07;5.03;;;6.20;99.90;;;;;;5005137;28;20065;-80
2023/01/14 10:06:15;;;;;;;13.85;5.32;;;6.20;99.90;;;;;;4973676;28;20034;-80
2023/01/14 10:08:46;;;;;;;11.43;5.15;;;6.30;99.90;;;;;;4987352;28;20484;-81
2023/01/14 10:11:13;;;;;;;8.43;4.55;;;6.30;99.90;;;;;;5006036;28;20125;-82
2023/01/14 10:13:53;;;;;;;15.60;4.78;;;6.30;99.90;;;;;;5015710;28;20420;-80
2023/01/14 10:16:28;;;;;;;17.00;4.80;;;6.40;99.90;;;;;;4990421;28;20041;-80
2023/01/14 10:19:04;;;;;;;12.95;5.22;;;6.40;99.90;;;;;;5022296;23;20117;-73
2023/01/14 10:21:58;;;;;;;12.93;4.50;;;6.40;99.90;;;;;;4997541;28;20042;-73
2023/01/14 10:24:23;;;;;;;10.35;4.45;;;6.40;99.90;;;;;;4997631;28;20120;-73
2023/01/14 10:26:50;;;;;;;16.60;5.10;;;6.50;99.90;;;;;;5003642;28;20120;-73
2023/01/14 10:29:19;;;;;;;16.00;5.05;;;6.50;99.90;;;;;;4993556;28;20433;-73
2023/01/14 10:31:58;;;;;;;12.73;4.63;;;6.50;99.90;;;;;;4994086;28;20120;-74
2023/01/14 10:34:46;;;;;;;10.68;4.70;;;6.50;99.90;;;;;;4991180;28;20046;-74
2023/01/14 10:37:12;;;;;;;12.10;5.07;;;6.60;99.90;;;;;;4974707;28;20042;-74
2023/01/14 10:39:44;;;;;;;11.55;4.45;;;6.60;99.90;;;;;;4977263;28;20125;-75
2023/01/14 10:42:11;;;;;;;11.63;4.43;;;6.60;99.90;;;;;;4992980;28;20034;-76
2023/01/14 10:44:43;;;;;;;9.15;4.47;;;6.60;99.90;;;;;;4993642;28;20710;-75
2023/01/14 10:47:13;;;;;;;8.43;4.07;;;6.70;99.90;;;;;;4995806;28;20053;-75
2023/01/14 10:49:55;;;;;;;9.45;4.38;;;6.70;99.90;;;;;;4996235;28;20487;-75
2023/01/14 10:52:21;;;;;;;12.18;4.90;;;6.70;99.90;;;;;;4994733;28;20488;-76
2023/01/14 10:54:58;;;;;;;11.50;4.55;;;6.80;99.90;;;;;;4997907;28;20052;-76
2023/01/14 10:57:25;;;;;;;11.45;4.85;;;6.80;99.90;;;;;;4990566;28;20100;-75
2023/01/14 10:59:53;;;;;;;10.30;4.55;;;6.80;99.90;;;;;;4996986;28;20112;-74
2023/01/14 11:02:37;;;;;;;9.73;4.45;;;6.80;99.90;;;;;;4980242;28;20466;-74
2023/01/14 11:05:27;;;;;;;10.70;4.13;;;6.80;99.90;;;;;;4996152;28;20041;-74
2023/01/14 11:07:55;;;;;;;10.20;4.40;;;6.80;99.90;;;;;;4993972;28;20057;-75
2023/01/14 11:10:22;;;;;;;8.88;4.28;;;6.90;99.90;;;;;;4983714;28;20038;-75
2023/01/14 11:12:48;;;;;;;9.05;3.83;;;6.90;99.90;;;;;;4989053;28;20097;-73
2023/01/14 11:15:34;;;;;;;9.00;4.18;;;6.90;99.90;;;;;;4989520;28;20480;-74
2023/01/14 11:18:22;;;;;;;10.23;4.28;;;6.90;99.90;;;;;;4997087;28;20095;-73
2023/01/14 11:21:03;;;;;;;8.43;4.80;;;7.00;99.90;;;;;;4993105;28;20041;-73
2023/01/14 11:23:32;;;;;;;8.25;4.25;;;7.00;99.90;;;;;;4995788;28;20042;-73
2023/01/14 11:26:03;;;;;;;11.13;5.53;;;7.00;99.90;;;;;;4997009;28;20034;-73
2023/01/14 11:28:29;;;;;;;9.45;4.20;;;7.00;99.90;;;;;;4994006;28;20085;-73
2023/01/14 11:30:56;;;;;;;11.80;4.80;;;7.00;99.90;;;;;;4984355;28;20629;-73
2023/01/14 11:33:24;;;;;;;10.68;4.47;;;7.00;99.90;;;;;;4992375;28;20034;-73
2023/01/14 11:35:53;;;;;;;9.45;4.43;;;7.00;99.90;;;;;;5009940;28;20080;-72
2023/01/14 11:38:21;;;;;;;8.18;3.97;;;7.00;99.90;;;;;;4994632;28;20133;-72
2023/01/14 11:44:18;;;;;;;9.13;3.92;;;7.10;99.90;;;;;;5005702;28;20053;-73
2023/01/14 11:46:45;;;;;;;7.95;3.33;;;7.10;99.90;;;;;;4993362;28;20050;-73
2023/01/14 11:49:16;;;;;;;9.68;3.65;;;7.10;99.90;;;;;;5009907;28;20199;-73
2023/01/14 11:51:59;;;;;;;6.22;3.70;;;7.20;99.90;;;;;;4980326;28;20046;-73
2023/01/14 11:54:33;;;;;;;5.95;3.33;;;7.20;99.90;;;;;;4996757;28;20042;-73
2023/01/14 11:56:59;;;;;;;6.93;3.20;;;7.20;99.90;;;;;;4991898;28;20046;-73
2023/01/14 11:59:35;;;;;;;6.95;3.30;;;7.30;99.90;;;;;;4994423;28;20060;-73
2023/01/14 12:02:15;;;;;;;9.75;3.50;;;7.30;99.90;;;;;;4978535;28;20037;-73
2023/01/14 12:04:51;;;;;;;6.82;3.50;;;7.30;99.90;;;;;;4996859;28;20112;-73
2023/01/14 12:07:24;;;;;;;6.63;3.17;;;7.30;99.90;;;;;;4996517;28;20042;-73
2023/01/14 12:09:55;;;;;;;6.70;3.22;;;7.40;99.90;;;;;;4989481;28;20184;-73
2023/01/14 12:16:48;;;;;;;4.63;3.03;;;7.40;99.90;;;;;;4995714;28;20081;-73
2023/01/14 12:18:54;;;;;;;4.88;2.78;;;7.50;99.90;;;;;;4977470;28;20480;-74
2023/01/14 12:21:25;;;;;;;6.20;2.95;;;7.50;99.90;;;;;;4988966;28;20558;-74
2023/01/14 12:24:01;;;;;;;5.18;3.30;;;7.50;99.90;;;;;;4996040;28;20042;-73
2023/01/14 12:26:38;;;;;;;12.85;3.38;;;7.60;99.90;;;;;;4979846;28;20038;-73
2023/01/14 12:29:09;;;;;;;6.68;2.50;;;7.60;99.90;;;;;;4989835;28;20472;-74
2023/01/14 12:31:44;;;;;;;9.35;3.17;;;7.70;99.90;;;;;;4995571;28;20046;-72
2023/01/14 12:34:24;;;;;;;5.28;2.58;;;7.70;99.90;;;;;;4994479;28;20034;-73
2023/01/14 12:36:58;;;;;;;4.13;2.47;;;7.80;99.90;;;;;;4979451;28;20042;-73
2023/01/14 12:45:50;;;;;;;5.18;2.08;;;7.90;99.90;;;;;;4995595;28;20052;-73
2023/01/14 12:48:18;;;;;;;4.82;2.30;;;8.00;99.90;;;;;;4976812;28;20488;-73
2023/01/14 12:50:50;;;;;;;4.63;2.20;;;8.00;99.90;;;;;;4988842;28;20046;-73
2023/01/14 12:53:19;;;;;;;4.80;2.10;;;8.00;99.90;;;;;;4995492;28;20033;-73
2023/01/14 12:55:47;;;;;;;4.38;2.00;;;8.00;99.90;;;;;;4995466;28;20447;-73
2023/01/14 12:58:19;;;;;;;4.25;2.13;;;8.10;99.90;;;;;;4989172;28;20046;-74
2023/01/14 13:00:54;;;;;;;3.33;1.67;;;8.10;99.90;;;;;;4995485;28;20045;-73
2023/01/14 13:03:45;;;;;;;4.00;1.75;;;8.20;99.90;;;;;;4988095;28;20038;-73
2023/01/14 13:06:15;;;;;;;3.28;1.70;;;8.20;99.90;;;;;;4995368;28;20046;-73
2023/01/14 13:08:41;;;;;;;3.33;1.88;;;8.30;99.90;;;;;;4991757;28;20053;-73
2023/01/14 13:11:20;;;;;;;4.07;1.80;;;8.30;99.90;;;;;;4990132;28;20717;-73
2023/01/14 13:13:58;;;;;;;2.47;1.70;;;8.30;99.90;;;;;;4995034;28;20046;-73
2023/01/14 13:16:33;;;;;;;3.25;2.00;;;8.40;99.90;;;;;;4995113;28;20504;-73
2023/01/14 13:19:01;;;;;;;3.83;1.98;;;8.40;99.90;;;;;;4986893;28;20046;-73
2023/01/14 13:21:55;;;;;;;3.78;1.70;;;8.40;99.90;;;;;;4986902;28;20041;-74
2023/01/14 13:24:43;;;;;;;2.88;1.77;;;8.50;99.90;;;;;;4987827;28;20053;-73
2023/01/14 13:27:40;;;;;;;2.90;1.80;;;8.50;99.90;;;;;;4993913;28;20096;-73
2023/01/14 13:30:18;;;;;;;2.67;1.88;;;8.50;99.90;;;;;;4977689;28;20093;-73
2023/01/14 13:32:59;;;;;;;4.28;1.70;;;8.60;99.90;;;;;;4976399;28;20389;-73
2023/01/14 13:35:27;;;;;;;2.80;1.67;;;8.60;99.90;;;;;;4975451;28;20049;-73
2023/01/14 13:37:54;;;;;;;3.30;1.88;;;8.60;99.90;;;;;;4974933;28;20049;-73
2023/01/14 13:40:25;;;;;;;2.00;1.67;;;8.60;99.90;;;;;;4987128;28;20046;-72
2023/01/14 13:43:14;;;;;;;4.25;2.00;;;8.70;99.90;;;;;;4996965;28;20428;-74
2023/01/14 13:45:40;;;;;;;2.47;1.70;;;8.70;99.90;;;;;;4985054;28;20468;-74